createdAt,value
2018-10-18T00:01:22.928Z,76.88
2018-10-18T00:04:26.497Z,76.85
2018-10-18T00:07:31.018Z,77.12
2018-10-18T00:10:34.470Z,76.98
2018-10-18T00:13:38.225Z,77.15
2018-10-18T00:16:41.739Z,76.89
2018-10-18T00:19:45.328Z,76.44
2018-10-18T00:22:48.872Z,76.60
2018-10-18T00:25:52.458Z,76.73
2018-10-18T00:28:56.138Z,76.82
2018-10-18T00:31:59.621Z,76.56
2018-10-18T00:35:03.162Z,77.01
2018-10-18T00:38:07.703Z,77.06
2018-10-18T00:41:11.241Z,77.15
2018-10-18T00:44:14.834Z,76.91
2018-10-18T00:47:18.266Z,77.07
2018-10-18T00:50:22.796Z,77.17
2018-10-18T00:53:26.323Z,78.08
2018-10-18T00:56:29.993Z,77.99
2018-10-18T00:59:33.545Z,78.00
2018-10-18T01:02:37.114Z,77.65
2018-10-18T01:05:40.615Z,77.31
2018-10-18T01:08:44.210Z,76.87
2018-10-18T01:11:47.808Z,76.94
2018-10-18T01:14:51.326Z,77.22
2018-10-18T01:17:54.818Z,77.20
2018-10-18T01:20:58.479Z,77.33
2018-10-18T01:24:07.254Z,77.52
2018-10-18T01:27:10.804Z,77.71
2018-10-18T01:30:14.380Z,77.81
2018-10-18T01:33:17.873Z,78.02
2018-10-18T01:36:21.428Z,78.34
2018-10-18T01:39:25.122Z,78.10
2018-10-18T01:42:29.612Z,78.53
2018-10-18T01:45:33.250Z,78.89
2018-10-18T01:48:36.813Z,78.51
2018-10-18T01:51:40.356Z,78.48
2018-10-18T01:54:43.932Z,78.19
2018-10-18T01:57:47.431Z,78.78
2018-10-18T02:00:50.910Z,79.13
2018-10-18T02:03:54.522Z,79.21
2018-10-18T02:06:58.155Z,79.06
2018-10-18T02:10:01.922Z,79.03
2018-10-18T02:13:05.902Z,79.61
2018-10-18T02:16:09.581Z,79.74
2018-10-18T02:19:13.139Z,79.67
2018-10-18T02:22:16.616Z,79.72
2018-10-18T02:25:20.184Z,79.30
2018-10-18T02:28:23.717Z,79.44
2018-10-18T02:31:27.224Z,79.57
2018-10-18T02:34:31.820Z,79.41
2018-10-18T02:37:35.329Z,79.47
2018-10-18T02:40:38.876Z,79.32
2018-10-18T02:43:42.473Z,79.21
2018-10-18T02:46:45.971Z,79.25
2018-10-18T02:49:49.576Z,79.11
2018-10-18T02:52:53.079Z,79.16
2018-10-18T02:55:56.648Z,79.29
2018-10-18T02:59:00.166Z,79.27
2018-10-18T03:02:03.792Z,79.19
2018-10-18T03:05:08.710Z,79.23
2018-10-18T03:08:14.321Z,78.79
2018-10-18T03:11:17.880Z,78.53
2018-10-18T03:14:21.505Z,78.90
2018-10-18T03:17:25.163Z,78.58
2018-10-18T03:20:28.652Z,79.16
2018-10-18T03:23:32.152Z,79.15
2018-10-18T03:26:35.726Z,79.28
2018-10-18T03:29:39.310Z,79.57
2018-10-18T03:32:42.838Z,79.43
2018-10-18T03:35:46.541Z,79.11
2018-10-18T03:38:49.983Z,78.85
2018-10-18T03:41:53.598Z,79.21
2018-10-18T03:44:57.316Z,79.40
2018-10-18T03:48:00.818Z,79.27
2018-10-18T03:51:05.478Z,78.96
2018-10-18T03:54:09.274Z,78.69
2018-10-18T03:57:12.893Z,78.73
2018-10-18T04:00:16.437Z,78.94
2018-10-18T04:03:21.948Z,78.96
2018-10-18T04:06:25.566Z,78.96
2018-10-18T04:09:29.514Z,78.90
2018-10-18T04:12:33.089Z,79.05
2018-10-18T04:15:36.679Z,79.04
2018-10-18T04:18:40.291Z,79.66
2018-10-18T04:21:43.929Z,79.36
2018-10-18T04:24:47.533Z,79.50
2018-10-18T04:27:51.077Z,79.13
2018-10-18T04:30:54.614Z,79.47
2018-10-18T04:33:58.174Z,79.62
2018-10-18T04:37:01.667Z,79.90
2018-10-18T04:40:06.011Z,79.89
2018-10-18T04:43:09.777Z,79.82
2018-10-18T04:46:13.303Z,79.32
2018-10-18T04:49:16.813Z,79.23
2018-10-18T04:52:20.311Z,79.24
2018-10-18T04:55:23.869Z,79.46
2018-10-18T04:58:27.666Z,79.93
2018-10-18T05:01:31.289Z,79.88
2018-10-18T05:04:34.848Z,80.00
2018-10-18T05:07:38.402Z,80.34
2018-10-18T05:10:42.157Z,80.57
2018-10-18T05:13:47.806Z,80.88
2018-10-18T05:16:53.445Z,80.99
2018-10-18T05:19:57.013Z,80.85
2018-10-18T05:23:00.771Z,80.74
2018-10-18T05:26:04.380Z,80.48
2018-10-18T05:29:07.882Z,80.60
2018-10-18T05:32:11.397Z,81.40
2018-10-18T05:35:15.052Z,81.81
2018-10-18T05:38:18.749Z,81.77
2018-10-18T05:41:22.371Z,81.75
2018-10-18T05:44:26.029Z,81.63
2018-10-18T05:47:29.616Z,81.60
2018-10-18T05:50:33.096Z,81.13
2018-10-18T05:53:36.700Z,80.90
2018-10-18T05:56:40.171Z,80.41
2018-10-18T05:59:43.659Z,80.24
2018-10-18T06:02:47.585Z,80.45
2018-10-18T06:05:51.090Z,80.71
2018-10-18T06:08:54.524Z,81.04
2018-10-18T06:11:58.115Z,81.31
2018-10-18T06:15:01.690Z,81.11
2018-10-18T06:18:05.438Z,80.81
2018-10-18T06:21:09.006Z,80.56
2018-10-18T06:24:12.720Z,80.70
2018-10-18T06:27:16.312Z,80.55
2018-10-18T06:30:19.880Z,80.06
2018-10-18T06:33:23.422Z,79.87
2018-10-18T06:36:27.086Z,79.75
2018-10-18T06:39:30.691Z,79.73
2018-10-18T06:42:34.248Z,79.58
2018-10-18T06:45:37.836Z,79.90
2018-10-18T06:48:41.825Z,80.22
2018-10-18T06:51:45.352Z,80.01
2018-10-18T06:54:48.818Z,80.07
2018-10-18T06:57:52.356Z,80.40
2018-10-18T07:00:55.901Z,80.02
2018-10-18T07:03:59.430Z,79.22
2018-10-18T07:07:03.133Z,80.18
2018-10-18T07:10:06.978Z,81.19
2018-10-18T07:13:10.750Z,81.33
2018-10-18T07:16:13.939Z,81.27
2018-10-18T07:19:17.526Z,81.12
2018-10-18T07:22:21.369Z,80.91
2018-10-18T07:25:25.014Z,80.79
2018-10-18T07:28:28.408Z,80.70
2018-10-18T07:31:31.854Z,80.75
2018-10-18T07:34:36.275Z,80.15
2018-10-18T07:37:39.829Z,78.98
2018-10-18T07:40:43.378Z,78.57
2018-10-18T07:43:46.816Z,78.29
2018-10-18T07:46:50.378Z,78.25
2018-10-18T07:49:53.784Z,77.34
2018-10-18T07:52:57.312Z,78.91
2018-10-18T07:56:00.810Z,79.03
2018-10-18T07:59:04.307Z,78.71
2018-10-18T08:02:07.956Z,78.48
2018-10-18T08:05:11.966Z,77.70
2018-10-18T08:08:15.413Z,76.83
2018-10-18T08:11:18.833Z,75.32
2018-10-18T08:14:22.475Z,75.41
2018-10-18T08:17:26.174Z,74.99
2018-10-18T08:20:29.938Z,74.06
2018-10-18T08:23:33.338Z,74.73
2018-10-18T08:26:36.724Z,74.53
2018-10-18T08:29:40.184Z,74.90
2018-10-18T08:32:43.658Z,74.65
2018-10-18T08:35:47.151Z,75.33
2018-10-18T08:38:50.730Z,75.01
2018-10-18T08:41:54.163Z,74.31
2018-10-18T08:44:57.669Z,74.26
2018-10-18T08:48:01.208Z,72.93
2018-10-18T08:51:04.722Z,73.10
2018-10-18T08:54:08.228Z,73.31
2018-10-18T08:57:12.226Z,72.80
2018-10-18T09:00:15.722Z,72.83
2018-10-18T09:03:19.193Z,72.62
2018-10-18T09:06:22.673Z,72.56
2018-10-18T09:09:26.108Z,72.16
2018-10-18T09:12:29.689Z,71.91
2018-10-18T09:15:33.212Z,71.32
2018-10-18T09:18:36.686Z,71.29
2018-10-18T09:21:40.101Z,70.99
2018-10-18T09:24:43.558Z,70.04
2018-10-18T09:27:47.062Z,69.82
2018-10-18T09:30:50.530Z,70.00
2018-10-18T09:33:54.111Z,69.52
2018-10-18T09:36:58.315Z,68.57
2018-10-18T09:40:02.582Z,67.70
2018-10-18T09:43:06.222Z,67.52
2018-10-18T09:46:09.764Z,67.76
2018-10-18T09:49:13.322Z,67.94
2018-10-18T09:52:16.769Z,67.57
2018-10-18T09:55:20.198Z,67.54
2018-10-18T09:58:23.702Z,67.45
2018-10-18T10:01:32.563Z,67.62
2018-10-18T10:04:35.979Z,66.97
2018-10-18T10:07:39.397Z,66.70
2018-10-18T10:10:42.844Z,66.31
2018-10-18T10:13:46.327Z,65.72
2018-10-18T10:16:49.742Z,65.33
2018-10-18T10:19:53.202Z,65.49
2018-10-18T10:22:56.628Z,64.80
2018-10-18T10:26:00.081Z,64.29
2018-10-18T10:29:03.539Z,64.05
2018-10-18T10:32:07.036Z,63.71
2018-10-18T10:35:10.604Z,63.53
2018-10-18T10:38:14.054Z,63.54
2018-10-18T10:41:17.556Z,63.19
2018-10-18T10:44:21.004Z,63.45
2018-10-18T10:47:24.346Z,62.76
2018-10-18T10:50:27.889Z,62.37
2018-10-18T10:53:32.374Z,61.83
2018-10-18T10:56:35.917Z,61.55
2018-10-18T10:59:39.428Z,61.10
2018-10-18T11:02:43.121Z,61.26
2018-10-18T11:05:46.561Z,60.81
2018-10-18T11:08:49.963Z,59.68
2018-10-18T11:11:53.537Z,59.20
2018-10-18T11:14:56.968Z,58.96
2018-10-18T11:18:00.578Z,57.73
2018-10-18T11:21:05.051Z,58.35
2018-10-18T11:24:08.491Z,57.85
2018-10-18T11:27:12.211Z,57.92
2018-10-18T11:30:15.806Z,56.52
2018-10-18T11:33:19.073Z,56.42
2018-10-18T11:36:22.645Z,56.28
2018-10-18T11:39:26.184Z,56.33
2018-10-18T11:42:29.894Z,56.16
2018-10-18T11:45:33.451Z,56.45
2018-10-18T11:48:36.896Z,56.09
2018-10-18T11:51:40.554Z,55.18
2018-10-18T11:54:43.906Z,55.47
2018-10-18T11:57:47.418Z,55.42
2018-10-18T12:00:50.970Z,55.07
2018-10-18T12:03:54.409Z,54.51
2018-10-18T12:06:57.910Z,54.75
2018-10-18T12:10:01.442Z,54.49
2018-10-18T12:13:04.943Z,54.15
2018-10-18T12:16:08.541Z,53.82
2018-10-18T12:19:12.094Z,54.19
2018-10-18T12:22:15.553Z,54.23
2018-10-18T12:25:19.088Z,53.69
2018-10-18T12:28:22.602Z,53.67
2018-10-18T12:31:26.144Z,53.64
2018-10-18T12:34:29.659Z,53.92
2018-10-18T12:37:33.136Z,53.25
2018-10-18T12:40:36.722Z,53.33
2018-10-18T12:43:40.953Z,52.66
2018-10-18T12:46:44.480Z,52.98
2018-10-18T12:49:47.966Z,52.68
2018-10-18T12:52:51.514Z,52.76
2018-10-18T12:55:55.041Z,52.38
2018-10-18T12:58:58.625Z,51.84
2018-10-18T13:02:02.089Z,52.23
2018-10-18T13:05:07.137Z,52.12
2018-10-18T13:08:10.712Z,52.11
2018-10-18T13:11:14.222Z,51.87
2018-10-18T13:14:17.804Z,52.20
2018-10-18T13:17:21.241Z,52.17
2018-10-18T13:20:24.739Z,52.09
2018-10-18T13:23:28.288Z,51.74
2018-10-18T13:26:31.858Z,51.51
2018-10-18T13:29:36.425Z,50.80
2018-10-18T13:32:40.511Z,50.45
2018-10-18T13:35:43.941Z,50.64
2018-10-18T13:38:47.432Z,50.60
2018-10-18T13:41:50.878Z,49.91
2018-10-18T13:44:54.685Z,49.90
2018-10-18T13:47:58.127Z,49.67
2018-10-18T13:51:01.822Z,49.69
2018-10-18T13:54:05.673Z,49.42
2018-10-18T13:57:09.142Z,49.27
2018-10-18T14:00:30.020Z,48.77
2018-10-18T14:03:33.642Z,48.79
2018-10-18T14:06:37.178Z,48.31
2018-10-18T14:09:40.661Z,48.32
2018-10-18T14:12:44.162Z,48.46
2018-10-18T14:15:47.635Z,48.95
2018-10-18T14:18:52.049Z,48.61
2018-10-18T14:21:55.451Z,48.82
2018-10-18T14:24:59.934Z,48.39
2018-10-18T14:28:03.482Z,48.96
2018-10-18T14:31:07.035Z,48.32
2018-10-18T14:34:10.722Z,48.99
2018-10-18T14:37:14.216Z,49.26
2018-10-18T14:40:17.755Z,49.28
2018-10-18T14:43:21.234Z,49.54
2018-10-18T14:46:24.743Z,49.82
2018-10-18T14:49:28.275Z,50.09
2018-10-18T14:52:31.769Z,50.17
2018-10-18T14:55:35.369Z,50.07
2018-10-18T14:58:38.820Z,50.28
2018-10-18T15:01:42.342Z,50.34
2018-10-18T15:04:45.836Z,50.50
2018-10-18T15:07:49.380Z,50.69
2018-10-18T15:10:52.932Z,50.42
2018-10-18T15:13:56.334Z,50.96
2018-10-18T15:16:59.742Z,51.66
2018-10-18T15:20:03.225Z,52.04
2018-10-18T15:23:06.650Z,52.23
2018-10-18T15:26:10.132Z,52.21
2018-10-18T15:29:13.595Z,52.78
2018-10-18T15:32:16.998Z,53.20
2018-10-18T15:35:20.518Z,53.79
2018-10-18T15:38:24.107Z,54.47
2018-10-18T15:41:27.316Z,54.60
2018-10-18T15:44:30.857Z,54.75
2018-10-18T15:47:34.510Z,55.05
2018-10-18T15:50:37.833Z,55.11
2018-10-18T15:53:41.276Z,55.26
2018-10-18T15:56:44.913Z,55.51
2018-10-18T15:59:48.482Z,55.76
2018-10-18T16:02:51.843Z,56.12
2018-10-18T16:05:55.288Z,56.56
2018-10-18T16:08:58.740Z,56.97
2018-10-18T16:12:02.190Z,57.46
2018-10-18T16:15:06.505Z,58.00
2018-10-18T16:18:09.890Z,58.28
2018-10-18T16:21:13.270Z,58.72
2018-10-18T16:24:17.924Z,59.13
2018-10-18T16:27:21.332Z,59.69
2018-10-18T16:30:24.736Z,59.98
2018-10-18T16:33:28.184Z,60.34
2018-10-18T16:36:31.631Z,60.83
2018-10-18T16:39:35.053Z,61.32
2018-10-18T16:42:38.562Z,61.82
2018-10-18T16:45:42.010Z,62.28
2018-10-18T16:48:45.398Z,62.64
2018-10-18T16:51:48.906Z,62.52
2018-10-18T16:54:52.540Z,62.79
2018-10-18T16:57:56.029Z,62.99
2018-10-18T17:00:59.568Z,63.65
2018-10-18T17:04:03.073Z,64.10
2018-10-18T17:07:06.750Z,63.94
2018-10-18T17:10:10.316Z,63.44
2018-10-18T17:13:13.949Z,63.52
2018-10-18T17:16:17.553Z,63.33
2018-10-18T17:19:21.483Z,64.30
2018-10-18T17:22:25.112Z,64.19
2018-10-18T17:25:28.683Z,64.48
2018-10-18T17:28:32.213Z,65.06
2018-10-18T17:31:35.676Z,65.46
2018-10-18T17:34:39.459Z,66.10
2018-10-18T17:37:43.152Z,66.49
2018-10-18T17:40:46.846Z,66.80
2018-10-18T17:43:50.302Z,67.02
2018-10-18T17:46:53.880Z,67.14
2018-10-18T17:49:57.554Z,67.19
2018-10-18T17:53:01.116Z,67.29
2018-10-18T17:56:04.617Z,67.59
2018-10-18T17:59:08.165Z,67.71
2018-10-18T18:02:11.782Z,67.88
2018-10-18T18:05:15.169Z,68.11
2018-10-18T18:08:18.698Z,68.10
2018-10-18T18:11:22.167Z,67.97
2018-10-18T18:14:25.672Z,67.84
2018-10-18T18:17:29.222Z,67.88
2018-10-18T18:20:32.762Z,67.95
2018-10-18T18:23:36.389Z,67.77
2018-10-18T18:26:45.346Z,67.70
2018-10-18T18:29:43.429Z,68.06
2018-10-18T18:32:46.986Z,68.01
2018-10-18T18:35:50.448Z,67.83
2018-10-18T18:38:53.975Z,67.88
2018-10-18T18:41:57.480Z,67.86
2018-10-18T18:45:06.351Z,68.06
2018-10-18T18:48:09.801Z,68.32
2018-10-18T18:51:13.339Z,68.50
2018-10-18T18:54:16.849Z,68.67
2018-10-18T18:57:20.343Z,68.83
2018-10-18T19:00:23.968Z,69.06
2018-10-18T19:03:27.479Z,68.97
2018-10-18T19:06:31.066Z,69.25
2018-10-18T19:09:36.805Z,69.59
2018-10-18T19:12:40.440Z,69.63
2018-10-18T19:15:45.161Z,70.09
2018-10-18T19:18:48.650Z,69.78
2018-10-18T19:21:52.218Z,70.10
2018-10-18T19:24:55.987Z,70.07
2018-10-18T19:27:59.491Z,70.62
2018-10-18T19:31:03.158Z,71.11
2018-10-18T19:34:06.669Z,70.50
2018-10-18T19:37:10.228Z,70.91
2018-10-18T19:40:13.770Z,71.47
2018-10-18T19:43:17.307Z,71.08
2018-10-18T19:46:21.087Z,71.36
2018-10-18T19:49:24.729Z,71.49
2018-10-18T19:52:28.679Z,71.19
2018-10-18T19:55:32.261Z,71.39
2018-10-18T19:58:35.860Z,71.48
2018-10-18T20:01:39.613Z,71.64
2018-10-18T20:04:44.164Z,71.53
2018-10-18T20:07:47.607Z,72.52
2018-10-18T20:10:51.162Z,73.07
2018-10-18T20:13:54.721Z,73.17
2018-10-18T20:16:58.269Z,73.47
2018-10-18T20:20:01.851Z,73.05
2018-10-18T20:23:05.711Z,72.65
2018-10-18T20:26:09.381Z,72.56
2018-10-18T20:29:12.698Z,72.79
2018-10-18T20:32:16.377Z,73.36
2018-10-18T20:35:19.955Z,73.42
2018-10-18T20:38:23.562Z,73.58
2018-10-18T20:41:27.806Z,73.52
2018-10-18T20:44:31.286Z,73.74
2018-10-18T20:47:35.070Z,74.15
2018-10-18T20:50:38.463Z,74.25
2018-10-18T20:53:42.020Z,74.57
2018-10-18T20:56:45.491Z,74.30
2018-10-18T20:59:48.882Z,74.78
2018-10-18T21:02:52.473Z,74.68
2018-10-18T21:05:55.998Z,75.06
2018-10-18T21:08:59.497Z,74.79
2018-10-18T21:12:02.916Z,75.68
2018-10-18T21:15:06.424Z,75.62
2018-10-18T21:18:09.916Z,76.20
2018-10-18T21:21:13.395Z,76.22
2018-10-18T21:24:16.830Z,76.34
2018-10-18T21:27:20.646Z,76.30
2018-10-18T21:30:24.108Z,76.69
2018-10-18T21:33:27.519Z,76.35
2018-10-18T21:36:30.997Z,76.41
2018-10-18T21:39:35.848Z,76.31
2018-10-18T21:42:39.294Z,76.55
2018-10-18T21:45:42.808Z,76.66
2018-10-18T21:48:46.470Z,77.06
2018-10-18T21:51:49.913Z,77.05
2018-10-18T21:54:53.348Z,76.97
2018-10-18T21:57:56.776Z,76.71
2018-10-18T22:01:00.283Z,76.91
2018-10-18T22:04:03.651Z,77.08
2018-10-18T22:07:07.060Z,76.92
2018-10-18T22:10:10.899Z,76.91
2018-10-18T22:13:14.409Z,76.96
2018-10-18T22:16:17.982Z,76.55
2018-10-18T22:19:21.466Z,76.06
2018-10-18T22:22:24.976Z,76.21
2018-10-18T22:25:28.519Z,76.34
2018-10-18T22:28:31.973Z,76.50
2018-10-18T22:31:35.935Z,76.00
2018-10-18T22:34:39.410Z,75.98
2018-10-18T22:37:42.902Z,76.11
2018-10-18T22:40:47.413Z,76.71
2018-10-18T22:43:50.967Z,76.79
2018-10-18T22:46:54.489Z,77.54
2018-10-18T22:49:57.948Z,77.23
2018-10-18T22:53:03.511Z,77.35
2018-10-18T22:56:07.045Z,77.28
2018-10-18T22:59:10.772Z,77.09
2018-10-18T23:02:14.350Z,77.62
2018-10-18T23:05:17.813Z,77.16
2018-10-18T23:08:23.393Z,77.82
2018-10-18T23:11:26.973Z,76.90
2018-10-18T23:14:30.448Z,78.26
2018-10-18T23:17:33.971Z,78.24
2018-10-18T23:20:39.323Z,78.77
2018-10-18T23:23:42.800Z,78.95
2018-10-18T23:26:47.322Z,78.82
2018-10-18T23:29:50.827Z,78.38
2018-10-18T23:32:54.430Z,78.43
2018-10-18T23:35:58.092Z,78.74
2018-10-18T23:39:02.699Z,78.88
2018-10-18T23:42:06.224Z,79.24
2018-10-18T23:45:14.794Z,78.82
2018-10-18T23:48:24.637Z,78.68
2018-10-18T23:51:28.328Z,78.65
2018-10-18T23:54:31.814Z,79.11
2018-10-18T23:57:35.419Z,79.34
